createdAt,value
2023-01-26T00:00:00.300Z,0
2023-01-26T00:05:00.338Z,0
2023-01-26T00:10:00.401Z,0
2023-01-26T00:15:00.418Z,0
2023-01-26T00:20:00.365Z,0
2023-01-26T00:25:00.332Z,0
2023-01-26T00:30:00.345Z,0
2023-01-26T00:35:00.303Z,0
2023-01-26T00:40:00.334Z,0
2023-01-26T00:45:00.330Z,0
2023-01-26T00:50:00.370Z,0
2023-01-26T00:55:00.340Z,0
2023-01-26T01:00:00.355Z,0
2023-01-26T01:05:00.346Z,0
2023-01-26T01:10:00.328Z,0
2023-01-26T01:15:00.359Z,0
2023-01-26T01:20:00.320Z,0
2023-01-26T01:25:00.361Z,0
2023-01-26T01:30:00.351Z,0
2023-01-26T01:35:00.382Z,0
2023-01-26T01:40:00.421Z,0
2023-01-26T01:45:00.329Z,0
2023-01-26T01:50:00.349Z,0
2023-01-26T01:55:00.362Z,0
2023-01-26T02:00:00.363Z,0
2023-01-26T02:05:00.326Z,0
2023-01-26T02:10:00.337Z,0
2023-01-26T02:15:00.335Z,0
2023-01-26T02:20:00.403Z,0
2023-01-26T02:25:00.390Z,0
2023-01-26T02:30:00.329Z,0
2023-01-26T02:35:00.585Z,0
2023-01-26T02:40:00.394Z,0
2023-01-26T02:45:00.347Z,0
2023-01-26T02:50:00.336Z,0
2023-01-26T02:55:00.333Z,0
2023-01-26T03:00:00.324Z,0
2023-01-26T03:05:00.464Z,0
2023-01-26T03:10:00.379Z,0
2023-01-26T03:15:00.345Z,0
2023-01-26T03:20:00.314Z,0
2023-01-26T03:25:00.329Z,0
2023-01-26T03:30:00.333Z,0
2023-01-26T03:35:00.334Z,0
2023-01-26T03:40:00.330Z,0
2023-01-26T03:45:00.365Z,0
2023-01-26T03:50:00.382Z,0
2023-01-26T03:55:00.337Z,0
2023-01-26T04:00:00.443Z,0
2023-01-26T04:05:00.336Z,0
2023-01-26T04:10:00.423Z,0
2023-01-26T04:15:00.557Z,0
2023-01-26T04:20:00.334Z,0
2023-01-26T04:25:00.359Z,0
2023-01-26T04:30:00.388Z,0
2023-01-26T04:35:00.359Z,0
2023-01-26T04:40:00.449Z,0
2023-01-26T04:45:00.358Z,0
2023-01-26T04:50:00.399Z,0
2023-01-26T04:55:00.414Z,0
2023-01-26T05:00:00.382Z,0
2023-01-26T05:05:00.430Z,0
2023-01-26T05:10:00.384Z,0
2023-01-26T05:15:00.349Z,0
2023-01-26T05:20:00.409Z,0
2023-01-26T05:25:00.315Z,0
2023-01-26T05:30:00.445Z,0
2023-01-26T05:35:00.350Z,0
2023-01-26T05:40:00.350Z,0
2023-01-26T05:45:00.322Z,0
2023-01-26T05:50:00.352Z,0
2023-01-26T05:55:00.352Z,0
2023-01-26T06:00:00.344Z,0
2023-01-26T06:05:00.346Z,0
2023-01-26T06:10:00.320Z,2
2023-01-26T06:15:00.382Z,2
2023-01-26T06:20:00.355Z,0
2023-01-26T06:25:00.350Z,0
2023-01-26T06:30:00.338Z,0
2023-01-26T06:35:00.346Z,0
2023-01-26T06:40:00.377Z,0
2023-01-26T06:45:00.331Z,0
2023-01-26T06:50:00.330Z,2
2023-01-26T06:55:00.369Z,3
2023-01-26T07:00:00.442Z,5
2023-01-26T07:05:00.379Z,8
2023-01-26T07:10:00.424Z,15
2023-01-26T07:15:00.412Z,17
2023-01-26T07:20:00.354Z,34
2023-01-26T07:25:00.351Z,50
2023-01-26T07:30:00.403Z,91
2023-01-26T07:35:00.442Z,132
2023-01-26T07:40:00.333Z,175
2023-01-26T07:45:00.324Z,137
2023-01-26T07:50:00.359Z,201
2023-01-26T07:55:00.398Z,283
2023-01-26T08:00:00.351Z,510
2023-01-26T08:05:00.306Z,648
2023-01-26T08:10:00.336Z,506
2023-01-26T08:15:00.423Z,610
2023-01-26T08:20:00.324Z,787
2023-01-26T08:25:00.438Z,819
2023-01-26T08:30:00.375Z,884
2023-01-26T08:35:00.420Z,995
2023-01-26T08:40:00.325Z,1034
2023-01-26T08:45:00.426Z,1019
2023-01-26T08:50:00.363Z,1261
2023-01-26T08:55:00.366Z,1658
2023-01-26T09:00:00.357Z,1658
2023-01-26T09:05:00.402Z,1862
2023-01-26T09:10:00.389Z,2586
2023-01-26T09:15:00.431Z,2290
2023-01-26T09:20:00.377Z,2578
2023-01-26T09:25:00.402Z,3030
2023-01-26T09:30:00.455Z,7091
2023-01-26T09:35:00.506Z,4155
2023-01-26T09:40:00.397Z,4358
2023-01-26T09:45:00.376Z,4675
2023-01-26T09:50:01.015Z,5629
2023-01-26T09:55:00.332Z,5016
2023-01-26T10:00:00.436Z,8213
2023-01-26T10:05:00.385Z,9221
2023-01-26T10:10:00.359Z,9705
2023-01-26T10:15:00.475Z,9705
2023-01-26T10:20:00.413Z,22264
2023-01-26T10:25:00.352Z,44968
2023-01-26T10:30:00.351Z,49556
2023-01-26T10:35:00.364Z,53306
2023-01-26T10:40:00.339Z,55399
2023-01-26T10:45:00.546Z,53321
2023-01-26T10:50:00.324Z,58654
2023-01-26T10:55:00.436Z,60062
2023-01-26T11:00:00.400Z,54488
2023-01-26T11:05:00.393Z,55847
2023-01-26T11:10:00.552Z,66283
2023-01-26T11:15:00.323Z,59938
2023-01-26T11:20:00.438Z,66497
2023-01-26T11:25:00.380Z,55424
2023-01-26T11:30:00.400Z,46666
2023-01-26T11:35:00.337Z,39120
2023-01-26T11:40:00.371Z,10735
2023-01-26T11:45:00.359Z,9262
2023-01-26T11:50:00.339Z,7860
2023-01-26T11:55:00.560Z,8847
2023-01-26T12:00:00.451Z,73672
2023-01-26T12:05:00.347Z,79360
2023-01-26T12:10:00.382Z,80779
2023-01-26T12:15:00.473Z,24238
2023-01-26T12:20:00.420Z,31225
2023-01-26T12:25:19.128Z,23448
2023-01-26T12:30:00.329Z,84996
2023-01-26T12:35:00.384Z,56468
2023-01-26T12:40:00.526Z,40776
2023-01-26T12:45:00.389Z,49034
2023-01-26T12:50:00.423Z,80593
2023-01-26T12:55:00.447Z,76825
2023-01-26T13:00:00.361Z,66054
2023-01-26T13:05:00.390Z,12089
2023-01-26T13:10:00.356Z,5669
2023-01-26T13:15:00.328Z,4189
2023-01-26T13:20:00.486Z,3107
2023-01-26T13:25:00.356Z,3793
2023-01-26T13:30:00.402Z,7132
2023-01-26T13:35:00.350Z,33970
2023-01-26T13:40:00.340Z,3596
2023-01-26T13:45:00.334Z,1706
2023-01-26T13:50:00.372Z,1948
2023-01-26T13:55:00.374Z,4660
2023-01-26T14:00:00.389Z,7702
2023-01-26T14:05:00.394Z,5545
2023-01-26T14:10:01.696Z,5545
2023-01-26T14:15:00.358Z,6509
2023-01-26T14:20:00.426Z,6860
2023-01-26T14:25:00.450Z,9454
2023-01-26T14:30:00.354Z,40337
2023-01-26T14:35:00.422Z,6053
2023-01-26T14:40:00.446Z,4749
2023-01-26T14:45:00.330Z,2589
2023-01-26T14:50:00.358Z,1410
2023-01-26T14:55:00.420Z,1112
2023-01-26T15:00:00.345Z,1112
2023-01-26T15:05:00.396Z,1112
2023-01-26T15:10:00.394Z,778
2023-01-26T15:15:00.376Z,426
2023-01-26T15:20:00.337Z,328
2023-01-26T15:25:00.362Z,541
2023-01-26T15:30:00.602Z,841
2023-01-26T15:35:00.335Z,864
2023-01-26T15:40:00.414Z,589
2023-01-26T15:45:00.364Z,374
2023-01-26T15:50:00.541Z,266
2023-01-26T15:55:00.465Z,147
2023-01-26T16:00:00.480Z,178
2023-01-26T16:05:00.365Z,124
2023-01-26T16:10:01.318Z,98
2023-01-26T16:15:00.410Z,44
2023-01-26T16:20:00.357Z,30
2023-01-26T16:25:00.378Z,23
2023-01-26T16:30:00.344Z,12
2023-01-26T16:35:00.379Z,8
2023-01-26T16:40:00.402Z,5
2023-01-26T16:45:00.357Z,3
2023-01-26T16:50:00.473Z,2
2023-01-26T16:55:00.416Z,0
2023-01-26T17:00:00.350Z,0
2023-01-26T17:05:00.345Z,3
2023-01-26T17:10:00.340Z,0
2023-01-26T17:15:00.433Z,2
2023-01-26T17:20:16.518Z,0
2023-01-26T17:25:00.392Z,0
2023-01-26T17:30:00.409Z,0
2023-01-26T17:35:00.375Z,0
2023-01-26T17:40:00.348Z,0
2023-01-26T17:45:00.408Z,0
2023-01-26T17:50:00.357Z,0
2023-01-26T17:55:00.359Z,0
2023-01-26T18:00:00.381Z,0
2023-01-26T18:05:00.557Z,0
2023-01-26T18:10:00.329Z,0
2023-01-26T18:15:00.598Z,0
2023-01-26T18:20:00.485Z,0
2023-01-26T18:25:00.452Z,0
2023-01-26T18:30:00.331Z,0
2023-01-26T18:35:00.307Z,0
2023-01-26T18:40:00.332Z,0
2023-01-26T18:45:00.332Z,0
2023-01-26T18:50:00.330Z,0
2023-01-26T18:55:00.355Z,0
2023-01-26T19:00:00.326Z,0
2023-01-26T19:05:00.325Z,0
2023-01-26T19:10:00.345Z,0
2023-01-26T19:15:00.317Z,0
2023-01-26T19:20:00.321Z,0
2023-01-26T19:25:00.323Z,0
2023-01-26T19:30:00.389Z,0
2023-01-26T19:35:00.319Z,0
2023-01-26T19:40:00.304Z,0
2023-01-26T19:45:00.362Z,0
2023-01-26T19:50:00.328Z,0
2023-01-26T19:55:00.304Z,0
2023-01-26T20:00:00.349Z,0
2023-01-26T20:05:00.389Z,0
2023-01-26T20:10:00.353Z,0
2023-01-26T20:15:00.829Z,0
2023-01-26T20:20:00.329Z,0
2023-01-26T20:25:00.329Z,0
2023-01-26T20:30:00.307Z,3
2023-01-26T20:35:00.325Z,0
2023-01-26T20:40:00.312Z,0
2023-01-26T20:45:00.326Z,0
2023-01-26T20:50:00.359Z,0
2023-01-26T20:55:00.300Z,0
2023-01-26T21:00:00.440Z,0
2023-01-26T21:05:00.338Z,0
2023-01-26T21:10:00.317Z,0
2023-01-26T21:15:00.365Z,0
2023-01-26T21:20:00.312Z,0
2023-01-26T21:25:00.307Z,0
2023-01-26T21:30:00.320Z,0
2023-01-26T21:35:00.320Z,0
2023-01-26T21:40:00.318Z,0
2023-01-26T21:45:00.333Z,0
2023-01-26T21:50:00.323Z,0
2023-01-26T21:55:00.342Z,0
2023-01-26T22:00:00.315Z,0
2023-01-26T22:05:00.323Z,0
2023-01-26T22:10:00.325Z,0
2023-01-26T22:15:00.321Z,0
2023-01-26T22:20:00.342Z,0
2023-01-26T22:25:00.394Z,0
2023-01-26T22:30:00.340Z,0
2023-01-26T22:35:00.325Z,0
2023-01-26T22:40:00.320Z,0
2023-01-26T22:45:00.364Z,0
2023-01-26T22:50:00.319Z,0
2023-01-26T22:55:00.323Z,0
2023-01-26T23:00:00.390Z,0
2023-01-26T23:05:00.322Z,0
2023-01-26T23:10:00.321Z,0
2023-01-26T23:15:00.336Z,0
2023-01-26T23:20:00.314Z,0
2023-01-26T23:25:00.326Z,0
2023-01-26T23:30:02.764Z,0
2023-01-26T23:35:00.320Z,0
2023-01-26T23:40:00.324Z,0
2023-01-26T23:45:00.329Z,0
2023-01-26T23:50:00.326Z,0
2023-01-26T23:55:00.327Z,0
